Time;durP1;ratioP1;P1;durP2;ratioP2;P2;SDS_P1;SDS_P2;PMS_P1;PMS_P2;Temp;Humidity;BMP_temperature;BMP_pressure;BME280_temperature;BME280_humidity;BME280_pressure;Samples;Min_cycle;Max_cycle;Signal;HPM_P1;HPM_P2
2022/05/13 00:02:00;;;;;;;3.80;3.50;;;;;;;16.99;78.50;97747.88;6253034;28;20241;-68
2022/05/13 00:05:05;;;;;;;3.97;3.67;;;;;;;17.01;78.46;97745.06;6253060;28;20223;-67
2022/05/13 00:08:07;;;;;;;5.00;3.97;;;;;;;16.93;79.05;97744.03;6235004;28;20227;-68
2022/05/13 00:11:10;;;;;;;4.10;3.80;;;;;;;16.86;79.14;97740.38;6253536;28;20365;-68
2022/05/13 00:14:12;;;;;;;3.60;3.30;;;;;;;16.79;79.21;97755.31;6235578;28;20231;-68
2022/05/13 00:17:15;;;;;;;4.40;4.00;;;;;;;16.74;79.38;97759.47;6234658;28;20230;-68
2022/05/13 00:20:18;;;;;;;5.23;4.30;;;;;;;16.70;79.45;97776.75;6253224;28;20234;-68
2022/05/13 00:23:20;;;;;;;7.63;4.40;;;;;;;16.64;79.67;97798.72;6251811;28;20230;-67
2022/05/13 00:26:22;;;;;;;7.20;4.90;;;;;;;16.43;81.42;97855.84;6252831;28;20321;-68
2022/05/13 00:29:24;;;;;;;5.33;4.83;;;;;;;16.46;81.21;97844.88;6253309;28;20346;-68
2022/05/13 00:32:26;;;;;;;5.23;4.73;;;;;;;16.50;80.38;97858.72;6252315;28;20231;-69
2022/05/13 00:35:29;;;;;;;8.03;4.60;;;;;;;16.82;73.55;97866.94;6252764;28;20226;-67
2022/05/13 00:38:31;;;;;;;6.00;4.63;;;;;;;17.11;70.70;97857.75;6252462;28;20237;-68
2022/05/13 00:41:34;;;;;;;6.00;4.57;;;;;;;17.33;69.80;97874.03;6254711;28;20580;-68
2022/05/13 00:44:36;;;;;;;9.33;4.70;;;;;;;17.17;70.23;97857.94;6252466;28;20256;-68
2022/05/13 00:47:39;;;;;;;8.47;4.90;;;;;;;16.91;71.52;97844.69;6252465;28;20231;-67
2022/05/13 00:50:41;;;;;;;6.33;4.37;;;;;;;16.68;72.40;97866.69;6231244;28;20338;-67
2022/05/13 00:53:47;;;;;;;5.40;4.30;;;;;;;16.57;73.82;97889.91;6228026;28;20651;-68
2022/05/13 00:56:49;;;;;;;8.07;4.10;;;;;;;16.45;75.14;97906.31;6250129;28;20237;-67
2022/05/13 00:59:53;;;;;;;7.07;3.97;;;;;;;16.20;75.64;97962.00;6230781;28;20258;-67
2022/05/13 01:02:56;;;;;;;6.87;4.07;;;;;;;16.21;75.71;98018.78;6231222;28;20231;-67
2022/05/13 01:06:03;;;;;;;7.87;4.07;;;;;;;16.24;75.76;98045.13;6232497;28;20710;-67
2022/05/13 01:09:04;;;;;;;3.53;3.23;;;;;;;16.38;73.66;98059.72;6238889;28;20227;-66
2022/05/13 01:12:11;;;;;;;4.17;3.13;;;;;;;16.46;72.83;98052.69;6238932;28;20556;-67
2022/05/13 01:15:19;;;;;;;15.70;4.97;;;;;;;16.37;77.42;98064.22;6254409;28;20215;-65
2022/05/13 01:18:31;;;;;;;14.27;5.23;;;;;;;15.90;80.33;98034.22;6233684;28;20749;-66
2022/05/13 01:21:33;;;;;;;11.80;4.40;;;;;;;15.55;81.58;98034.09;6229845;28;20227;-67
2022/05/13 01:24:36;;;;;;;9.27;4.37;;;;;;;15.38;82.99;98023.19;6252374;28;20229;-66
2022/05/13 01:27:41;;;;;;;14.17;5.67;;;;;;;15.37;83.70;98007.41;6256615;28;20251;-66
2022/05/13 01:30:47;;;;;;;6.90;3.90;;;;;;;15.33;84.28;98012.16;6255836;28;20721;-67
2022/05/13 01:33:50;;;;;;;7.60;4.03;;;;;;;15.33;84.89;98003.34;6256056;28;20308;-67
2022/05/13 01:36:52;;;;;;;6.67;3.27;;;;;;;15.32;84.85;98002.50;6254459;28;20718;-67
2022/05/13 01:39:54;;;;;;;5.23;3.50;;;;;;;15.32;84.76;97999.00;6255348;28;20250;-67
2022/05/13 01:42:56;;;;;;;5.43;3.30;;;;;;;15.34;85.13;97994.38;6255752;28;20249;-67
2022/05/13 01:45:58;;;;;;;10.73;3.87;;;;;;;15.30;85.33;98004.47;6255718;28;20236;-67
2022/05/13 01:49:01;;;;;;;6.40;3.53;;;;;;;15.28;86.03;98011.75;6255898;28;20350;-68
2022/05/13 01:52:03;;;;;;;5.40;3.20;;;;;;;15.23;85.99;98010.50;6256108;28;20618;-67
2022/05/13 01:55:05;;;;;;;5.50;3.00;;;;;;;15.20;85.95;97990.34;6255235;28;20230;-67
2022/05/13 01:58:12;;;;;;;4.90;3.30;;;;;;;15.22;86.23;97980.44;6255807;28;20227;-67
2022/05/13 02:01:14;;;;;;;4.17;2.83;;;;;;;15.26;86.04;97968.53;6254714;28;20334;-67
2022/05/13 02:04:16;;;;;;;3.93;2.80;;;;;;;15.29;86.01;97976.19;6256133;28;20738;-67
2022/05/13 02:07:18;;;;;;;4.67;2.97;;;;;;;15.32;85.53;97962.63;6255071;28;20254;-67
2022/05/13 02:10:20;;;;;;;5.33;2.53;;;;;;;15.33;85.90;97942.19;6256255;28;20312;-67
2022/05/13 02:13:23;;;;;;;4.63;2.53;;;;;;;15.31;85.75;97926.38;6256060;28;20645;-67
2022/05/13 02:16:25;;;;;;;4.03;2.80;;;;;;;15.27;85.78;97927.63;6255390;28;20230;-67
2022/05/13 02:19:27;;;;;;;3.73;1.87;;;;;;;15.25;85.82;97919.00;6254750;28;20258;-67
2022/05/13 02:22:29;;;;;;;2.57;2.00;;;;;;;15.23;86.00;97914.78;6255599;28;20369;-67
2022/05/13 02:25:31;;;;;;;2.10;1.73;;;;;;;15.21;85.93;97914.09;6256104;28;20757;-67
2022/05/13 02:28:34;;;;;;;1.60;1.50;;;;;;;15.19;85.92;97889.47;6255063;28;20372;-67
2022/05/13 02:31:36;;;;;;;1.70;1.60;;;;;;;15.18;85.84;97890.44;6255329;28;20276;-67
2022/05/13 02:34:38;;;;;;;2.93;2.00;;;;;;;15.17;85.82;97879.00;6237780;28;20223;-67
2022/05/13 02:37:40;;;;;;;3.60;1.57;;;;;;;15.16;85.65;97855.22;6254413;28;20330;-67
2022/05/13 02:44:04;;;;;;;2.10;1.90;;;;;;;15.05;85.44;97874.84;6252233;28;20242;-67
2022/05/13 02:47:11;;;;;;;4.17;2.30;;;;;;;15.00;85.76;97872.63;6255060;28;20365;-67
2022/05/13 02:50:19;;;;;;;3.20;2.03;;;;;;;14.99;85.89;97870.09;6255064;28;20234;-67
2022/05/13 02:53:21;;;;;;;3.20;2.10;;;;;;;14.99;85.97;97868.28;6252838;28;20223;-67
2022/05/13 02:56:25;;;;;;;4.13;2.07;;;;;;;15.00;86.13;97877.09;6254928;28;20222;-67
2022/05/13 02:59:27;;;;;;;4.87;2.20;;;;;;;15.03;86.25;97871.50;6254286;28;20744;-67
2022/05/13 03:02:29;;;;;;;2.87;2.40;;;;;;;15.02;86.20;97875.97;6254458;28;20710;-67
2022/05/13 03:05:32;;;;;;;3.53;2.13;;;;;;;15.00;86.36;97883.25;6253928;28;20661;-67
2022/05/13 03:08:34;;;;;;;3.83;2.27;;;;;;;14.98;86.35;97889.69;6253262;28;20750;-67
2022/05/13 03:11:37;;;;;;;3.83;2.53;;;;;;;14.96;86.02;97891.69;6254067;28;20233;-66
2022/05/13 03:14:39;;;;;;;2.60;2.40;;;;;;;14.94;86.14;97888.31;6252532;28;20318;-67
2022/05/13 03:17:41;;;;;;;3.80;2.67;;;;;;;14.95;86.10;97884.69;6254385;28;20667;-67
2022/05/13 03:20:43;;;;;;;3.27;2.93;;;;;;;14.96;85.96;97886.38;6253263;28;20243;-67
2022/05/13 03:23:45;;;;;;;3.20;2.90;;;;;;;14.96;86.06;97891.69;6235848;28;20239;-67
2022/05/13 03:26:47;;;;;;;3.13;2.20;;;;;;;14.96;85.97;97902.31;6253720;28;20624;-67
2022/05/13 03:29:49;;;;;;;3.97;2.53;;;;;;;14.93;85.83;97902.59;6253312;28;20245;-67
2022/05/13 03:32:55;;;;;;;2.87;2.33;;;;;;;14.96;85.98;97902.31;6253039;28;20237;-67
2022/05/13 03:35:57;;;;;;;2.90;2.37;;;;;;;14.99;86.20;97900.19;6245506;28;20239;-67
2022/05/13 03:38:59;;;;;;;3.27;2.33;;;;;;;14.98;86.15;97900.31;6253571;28;20256;-66
2022/05/13 03:42:01;;;;;;;2.90;2.30;;;;;;;14.95;86.29;97890.84;6252526;28;20659;-67
2022/05/13 03:45:05;;;;;;;2.10;1.90;;;;;;;14.96;86.11;97897.84;6252660;28;20865;-67
2022/05/13 03:48:08;;;;;;;2.13;2.00;;;;;;;14.94;86.12;97906.94;6253775;28;20215;-67
2022/05/13 03:51:11;;;;;;;3.20;2.20;;;;;;;14.92;86.32;97906.22;6252836;28;20289;-67
2022/05/13 03:54:13;;;;;;;2.47;2.27;;;;;;;14.90;86.62;97902.88;6252405;28;20658;-68
2022/05/13 03:57:15;;;;;;;2.50;2.20;;;;;;;14.93;86.71;97898.13;6252858;28;20219;-68
2022/05/13 04:00:17;;;;;;;2.60;2.40;;;;;;;14.98;86.32;97897.66;6252937;28;20226;-67
2022/05/13 04:03:20;;;;;;;2.87;1.80;;;;;;;15.02;86.77;97899.06;6253991;28;20218;-67
2022/05/13 04:09:43;;;;;;;3.00;1.60;;;;;;;15.05;86.90;97894.31;6254010;28;20234;-67
2022/05/13 04:16:06;;;;;;;3.73;2.23;;;;;;;15.06;86.97;97903.13;6253426;28;20230;-67
2022/05/13 04:19:08;;;;;;;3.37;2.37;;;;;;;15.01;86.99;97897.38;6234942;28;20251;-67
2022/05/13 04:22:13;;;;;;;2.53;2.30;;;;;;;14.99;87.36;97902.00;6234639;28;20591;-67
2022/05/13 04:25:15;;;;;;;3.73;2.80;;;;;;;15.00;87.51;97919.63;6255622;28;20595;-69
2022/05/13 04:28:17;;;;;;;4.13;2.90;;;;;;;15.06;87.60;97916.41;6257300;28;20516;-67
2022/05/13 04:31:23;;;;;;;3.43;3.13;;;;;;;15.14;87.11;97909.38;6256876;28;20585;-68
2022/05/13 04:34:25;;;;;;;2.97;2.70;;;;;;;15.22;86.97;97905.13;6256852;28;20318;-68
2022/05/13 04:37:28;;;;;;;4.63;2.83;;;;;;;15.25;86.95;97908.34;6256022;28;20710;-67
2022/05/13 04:40:30;;;;;;;2.90;2.70;;;;;;;15.26;87.19;97898.56;6239686;28;20243;-67
2022/05/13 04:43:33;;;;;;;3.93;2.97;;;;;;;15.28;87.11;97912.50;6246178;28;20238;-68
2022/05/13 04:46:35;;;;;;;3.10;2.77;;;;;;;15.25;87.36;97913.66;6253954;28;20231;-67
2022/05/13 04:49:37;;;;;;;2.97;2.77;;;;;;;15.28;87.33;97916.00;6257377;28;20717;-67
2022/05/13 04:52:39;;;;;;;4.00;3.10;;;;;;;15.33;87.31;97919.09;6257560;28;20237;-68
2022/05/13 04:55:41;;;;;;;6.23;3.27;;;;;;;15.37;87.93;97931.09;6256964;28;20370;-67
2022/05/13 04:58:43;;;;;;;3.03;2.83;;;;;;;15.41;87.44;97926.31;6257189;28;20222;-68
2022/05/13 05:01:45;;;;;;;3.70;2.80;;;;;;;15.41;87.11;97924.50;6256273;28;20231;-68
2022/05/13 05:04:47;;;;;;;6.33;3.60;;;;;;;15.41;87.46;97923.66;6256500;28;20257;-67
2022/05/13 05:07:49;;;;;;;4.77;3.23;;;;;;;15.36;87.37;97931.25;6257669;28;20223;-69
2022/05/13 05:10:51;;;;;;;4.00;3.60;;;;;;;15.31;87.27;97928.19;6256374;28;20238;-67
2022/05/13 05:13:53;;;;;;;4.67;3.80;;;;;;;15.35;87.33;97933.06;6256175;28;20702;-68
2022/05/13 05:16:55;;;;;;;4.03;3.40;;;;;;;15.37;87.25;97928.44;6256299;28;20229;-68
2022/05/13 05:19:57;;;;;;;3.80;3.37;;;;;;;15.44;87.08;97929.53;6256193;28;20229;-68
2022/05/13 05:22:59;;;;;;;3.70;3.10;;;;;;;15.47;86.77;97929.22;6255593;28;20231;-67
2022/05/13 05:26:01;;;;;;;3.60;3.30;;;;;;;15.51;86.87;97929.78;6256480;28;20663;-68
2022/05/13 05:29:03;;;;;;;8.47;3.07;;;;;;;15.52;87.15;97934.94;6255339;28;20326;-67
2022/05/13 05:32:06;;;;;;;3.60;3.30;;;;;;;15.50;87.46;97926.28;6255645;28;20265;-68
2022/05/13 05:35:12;;;;;;;3.90;3.50;;;;;;;15.48;87.57;97920.25;6255235;28;20368;-67
2022/05/13 05:38:14;;;;;;;5.30;3.60;;;;;;;15.45;87.79;97927.72;6255180;28;20246;-67
2022/05/13 05:41:18;;;;;;;5.83;3.13;;;;;;;15.42;87.59;97931.50;6237505;28;20235;-67
2022/05/13 05:44:20;;;;;;;3.87;3.20;;;;;;;15.42;87.11;97917.34;6256463;28;20720;-68
2022/05/13 05:47:23;;;;;;;3.50;3.20;;;;;;;15.52;86.65;97923.47;6255809;28;20613;-67
2022/05/13 05:50:25;;;;;;;3.27;3.07;;;;;;;15.62;86.39;97942.06;6255075;28;20577;-67
2022/05/13 06:00:10;;;;;;;3.50;3.20;;;;;;;15.94;85.19;97937.13;6248867;28;20227;-66
2022/05/13 06:03:14;;;;;;;4.73;3.50;;;;;;;16.00;85.23;97941.84;6254586;28;20241;-67
2022/05/13 06:06:16;;;;;;;4.33;3.30;;;;;;;16.02;85.45;97937.19;6255043;28;20215;-67
2022/05/13 06:09:18;;;;;;;5.43;3.60;;;;;;;16.05;85.47;97944.06;6256289;28;20225;-67
2022/05/13 06:12:20;;;;;;;3.97;3.10;;;;;;;16.01;85.81;97950.66;6255112;28;20707;-67
2022/05/13 06:15:23;;;;;;;4.77;3.67;;;;;;;16.00;85.88;97960.47;6254721;28;20330;-68
2022/05/13 06:18:25;;;;;;;3.57;3.27;;;;;;;15.97;85.85;97960.75;6255029;28;20235;-67
2022/05/13 06:21:30;;;;;;;4.43;3.57;;;;;;;16.07;85.59;97958.06;6254042;28;20262;-67
2022/05/13 06:24:32;;;;;;;4.57;3.20;;;;;;;16.16;85.70;97962.47;6254523;28;20235;-67
2022/05/13 06:27:34;;;;;;;4.77;3.40;;;;;;;16.29;85.27;97975.41;6254111;28;20227;-67
2022/05/13 06:30:38;;;;;;;3.60;3.30;;;;;;;16.42;85.19;97979.38;6255128;28;20238;-67
2022/05/13 06:33:40;;;;;;;3.20;3.00;;;;;;;16.52;84.75;97965.97;6252814;28;20298;-67
2022/05/13 06:36:42;;;;;;;3.87;3.03;;;;;;;16.63;84.36;97972.91;6253953;28;20321;-67
2022/05/13 06:39:44;;;;;;;3.67;3.37;;;;;;;16.73;83.32;97973.69;6254966;28;20302;-67
2022/05/13 06:42:46;;;;;;;3.47;3.10;;;;;;;16.81;82.38;97979.91;6236371;28;20235;-68
2022/05/13 06:45:49;;;;;;;4.30;3.20;;;;;;;16.96;81.54;97978.38;6255065;28;20243;-68
2022/05/13 06:48:51;;;;;;;8.27;3.17;;;;;;;17.02;80.39;97968.88;6253776;28;20573;-68
2022/05/13 06:51:53;;;;;;;3.67;2.97;;;;;;;17.09;80.84;97983.25;6254721;28;20608;-68
2022/05/13 06:54:55;;;;;;;5.77;3.30;;;;;;;17.04;80.60;97988.25;6254312;28;20253;-68
2022/05/13 06:57:58;;;;;;;4.03;2.97;;;;;;;17.06;81.21;97988.09;6257620;28;20234;-68
2022/05/13 07:01:02;;;;;;;5.03;3.37;;;;;;;17.05;80.92;98003.25;6254176;28;20753;-68
2022/05/13 07:04:04;;;;;;;4.50;3.30;;;;;;;16.96;80.81;98010.38;6254253;28;20619;-68
2022/05/13 07:07:06;;;;;;;3.73;3.43;;;;;;;16.89;81.02;98006.63;6254472;28;20345;-68
2022/05/13 07:10:09;;;;;;;4.57;3.43;;;;;;;16.80;80.89;98028.03;6236145;28;20626;-67
2022/05/13 07:13:14;;;;;;;3.57;3.27;;;;;;;16.72;80.98;98022.63;6253762;28;20326;-68
2022/05/13 07:16:16;;;;;;;5.37;3.40;;;;;;;16.66;81.42;98026.75;6253854;28;20241;-68
2022/05/13 07:19:18;;;;;;;4.63;3.60;;;;;;;16.55;81.59;98026.97;6253627;28;20230;-68
2022/05/13 07:22:21;;;;;;;5.27;3.80;;;;;;;16.48;81.79;98020.53;6236555;28;20709;-68
2022/05/13 07:25:24;;;;;;;4.33;3.43;;;;;;;16.47;81.71;98017.03;6252587;28;20261;-67
2022/05/13 07:28:27;;;;;;;5.37;3.40;;;;;;;16.37;82.05;98016.28;6254558;28;20761;-67
2022/05/13 07:31:28;;;;;;;4.20;3.80;;;;;;;16.37;82.23;98008.28;6253977;28;20230;-67
2022/05/13 07:34:31;;;;;;;4.33;3.70;;;;;;;16.29;82.81;98020.69;6253314;28;20237;-67
2022/05/13 07:37:33;;;;;;;4.30;3.90;;;;;;;16.24;82.67;98015.81;6253634;28;20292;-67
2022/05/13 07:43:55;;;;;;;9.30;4.23;;;;;;;16.28;83.22;98003.84;6253045;28;20780;-66
2022/05/13 07:46:57;;;;;;;5.83;3.50;;;;;;;16.14;84.03;98004.41;6252087;28;20243;-67
2022/05/13 07:49:59;;;;;;;3.20;3.00;;;;;;;16.11;84.28;98000.19;6253184;28;20647;-67
2022/05/13 07:53:01;;;;;;;4.27;3.50;;;;;;;16.14;84.20;97994.59;6253488;28;20321;-67
2022/05/13 07:56:04;;;;;;;7.63;3.87;;;;;;;16.17;84.25;97980.94;6252601;28;20222;-67
2022/05/13 07:59:06;;;;;;;3.57;3.27;;;;;;;16.24;84.03;97984.69;6252175;28;20219;-67
2022/05/13 08:02:14;;;;;;;5.77;3.33;;;;;;;16.43;83.58;97994.38;6251225;28;20306;-67
2022/05/13 08:05:16;;;;;;;3.40;3.10;;;;;;;16.64;82.97;97974.59;6252865;28;20239;-67
2022/05/13 08:08:30;;;;;;;5.17;3.20;;;;;;;16.86;82.33;97976.78;6237165;28;20317;-67
2022/05/13 08:11:32;;;;;;;3.23;2.93;;;;;;;17.07;81.19;97987.91;6252448;28;20253;-67
2022/05/13 08:14:40;;;;;;;3.17;2.87;;;;;;;17.25;80.80;97990.56;6252460;28;20234;-67
2022/05/13 08:17:42;;;;;;;3.30;3.00;;;;;;;17.40;80.24;97990.78;6252640;28;20226;-67
2022/05/13 08:20:46;;;;;;;3.23;2.90;;;;;;;17.54;79.80;97991.06;6253648;28;20325;-68
2022/05/13 08:23:49;;;;;;;6.73;3.30;;;;;;;17.66;79.71;98000.50;6251655;28;20231;-67
2022/05/13 08:26:51;;;;;;;5.10;2.90;;;;;;;17.87;79.17;97989.38;6252795;28;20281;-66
2022/05/13 08:29:53;;;;;;;3.03;2.73;;;;;;;18.09;78.69;97987.94;6252917;28;20280;-67
2022/05/13 08:32:56;;;;;;;4.57;2.40;;;;;;;18.24;78.17;97975.66;6218171;28;20644;-67
2022/05/13 08:36:01;;;;;;;3.13;2.60;;;;;;;18.37;77.94;97981.31;6251702;28;20235;-67
2022/05/13 08:39:03;;;;;;;2.93;2.60;;;;;;;18.46;78.25;97976.84;6251887;28;20223;-67
2022/05/13 08:42:53;;;;;;;3.23;2.93;;;;;;;18.50;77.79;97988.88;6234478;28;20230;-67
2022/05/13 08:46:01;;;;;;;3.60;2.60;;;;;;;18.54;77.95;97987.53;6176065;28;20702;-68
2022/05/13 08:49:34;;;;;;;2.57;2.37;;;;;;;18.68;78.05;97991.41;6176219;28;20233;-67
2022/05/13 08:53:06;;;;;;;5.70;2.67;;;;;;;18.77;77.41;97988.56;6176448;28;20328;-67
2022/05/13 08:56:11;;;;;;;7.13;2.80;;;;;;;18.93;76.98;98003.81;6160044;28;20233;-68
2022/05/13 08:59:13;;;;;;;2.90;2.07;;;;;;;19.02;76.86;97997.44;6177624;28;20416;-67
2022/05/13 09:02:22;;;;;;;3.37;1.93;;;;;;;19.11;76.48;97991.06;6176146;28;20715;-68
2022/05/13 09:05:36;;;;;;;3.83;2.03;;;;;;;19.16;75.91;97987.91;6176168;28;20631;-67
2022/05/13 09:08:38;;;;;;;4.17;2.40;;;;;;;19.28;75.79;97988.34;6176331;28;20229;-68
2022/05/13 09:12:17;;;;;;;3.07;2.20;;;;;;;19.46;74.95;97984.50;6182513;28;20554;-68
2022/05/13 09:15:23;;;;;;;2.80;1.93;;;;;;;19.67;74.50;97977.75;6167919;28;20240;-67
2022/05/13 09:18:34;;;;;;;2.20;2.00;;;;;;;19.80;73.59;97975.34;6179813;28;20539;-68
2022/05/13 09:21:42;;;;;;;3.53;2.07;;;;;;;19.90;73.89;97982.19;6205988;28;20725;-67
2022/05/13 09:24:45;;;;;;;1.90;1.80;;;;;;;19.89;73.28;97974.31;6255618;28;20251;-68
2022/05/13 09:28:11;;;;;;;1.70;1.60;;;;;;;19.96;73.42;97982.50;6238270;28;20594;-67
2022/05/13 09:31:19;;;;;;;2.10;2.00;;;;;;;20.05;73.73;97978.78;6257459;28;20235;-67
2022/05/13 09:34:55;;;;;;;2.80;1.90;;;;;;;20.13;73.58;97976.03;6256539;28;20239;-67
2022/05/13 09:37:57;;;;;;;2.07;1.87;;;;;;;20.30;73.47;97966.03;6247274;28;20265;-68
2022/05/13 09:41:01;;;;;;;4.40;2.23;;;;;;;20.63;73.29;97967.53;6255391;28;20614;-68
2022/05/13 09:44:06;;;;;;;2.13;1.97;;;;;;;21.03;71.97;97966.34;6255944;28;20227;-68
2022/05/13 09:47:12;;;;;;;3.90;1.97;;;;;;;21.06;70.75;97966.00;6248831;28;20336;-68
2022/05/13 09:50:37;;;;;;;2.43;1.97;;;;;;;21.38;70.51;97962.16;6255435;28;20520;-67
2022/05/13 09:53:40;;;;;;;3.50;2.13;;;;;;;21.90;68.93;97966.59;6255385;28;20760;-68
2022/05/13 09:56:53;;;;;;;3.90;2.30;;;;;;;22.40;67.63;97963.91;6248225;28;20396;-68
2022/05/13 10:00:22;;;;;;;4.77;2.17;;;;;;;22.75;67.44;97956.84;6247631;28;20238;-68
2022/05/13 11:03:28;;;;;;;6.05;2.08;;;;;;;28.27;46.45;97895.56;3966493;28;20274;-68
2022/05/13 11:06:49;;;;;;;7.13;2.47;;;;;;;28.94;44.96;97886.22;6254337;28;20353;-69
2022/05/13 11:10:22;;;;;;;2.85;2.17;;;;;;;28.74;45.30;97882.97;6253774;28;20230;-68
2022/05/13 11:13:53;;;;;;;5.63;2.42;;;;;;;27.92;44.49;97882.69;6254056;28;20658;-69
2022/05/13 11:17:07;;;;;;;4.13;2.03;;;;;;;27.82;46.75;97893.25;6252734;28;20234;-69
2022/05/13 11:20:21;;;;;;;2.63;2.22;;;;;;;27.31;43.86;97888.16;6236078;28;20223;-68
2022/05/13 11:27:46;;;;;;;2.67;2.17;;;;;;;26.98;45.44;97876.81;6253669;28;20223;-69
2022/05/13 11:31:08;;;;;;;2.70;2.50;;;;;;;26.23;47.12;97870.47;6252739;28;20227;-68
2022/05/13 11:34:52;;;;;;;5.03;2.45;;;;;;;26.30;47.08;97874.81;6246244;28;20611;-68
2022/05/13 11:38:01;;;;;;;5.20;2.50;;;;;;;26.03;47.79;97871.41;6254661;28;20261;-68
2022/05/13 11:41:10;;;;;;;2.40;2.20;;;;;;;26.70;47.69;97866.41;6253242;28;20223;-69
2022/05/13 11:45:10;;;;;;;3.00;2.40;;;;;;;27.50;42.99;97853.75;6252411;28;20233;-68
2022/05/13 11:48:26;;;;;;;4.80;2.30;;;;;;;27.72;41.98;97846.00;6245243;28;20760;-68
2022/05/13 11:51:32;;;;;;;3.38;2.20;;;;;;;27.93;43.24;97853.66;6252764;28;20389;-68
2022/05/13 11:54:34;;;;;;;2.05;1.85;;;;;;;28.02;41.94;97824.31;6253176;28;20719;-69
2022/05/13 11:57:48;;;;;;;3.95;1.80;;;;;;;28.41;41.60;97822.91;6253663;28;20777;-69
2022/05/13 12:00:50;;;;;;;1.80;1.70;;;;;;;28.70;40.66;97826.63;6253244;28;20229;-69
2022/05/13 12:04:13;;;;;;;1.90;1.77;;;;;;;28.96;39.60;97818.00;6143073;28;20596;-68
2022/05/13 12:07:31;;;;;;;1.73;1.63;;;;;;;29.00;37.19;97816.50;6251364;28;20227;-68
2022/05/13 12:10:46;;;;;;;2.80;1.80;;;;;;;29.29;37.55;97831.00;6252851;28;20235;-70
2022/05/13 12:14:09;;;;;;;1.90;1.60;;;;;;;29.76;36.19;97820.84;6252904;28;20235;-69
2022/05/13 12:17:26;;;;;;;1.40;1.30;;;;;;;28.75;38.88;97813.16;6252566;28;20785;-69
2022/05/13 12:20:45;;;;;;;2.03;1.83;;;;;;;28.10;40.77;97807.69;6252702;28;20231;-69
2022/05/13 12:24:02;;;;;;;4.57;1.90;;;;;;;27.78;41.77;97807.94;6210988;28;20239;-68
2022/05/13 12:27:12;;;;;;;2.97;2.03;;;;;;;27.82;40.43;97806.44;6227568;28;20220;-69
2022/05/13 12:30:34;;;;;;;2.03;1.67;;;;;;;28.27;40.27;97797.84;6249427;28;20285;-69
2022/05/13 12:33:38;;;;;;;3.72;1.70;;;;;;;28.07;40.77;97792.69;6252683;28;20241;-68
2022/05/13 12:40:21;;;;;;;5.28;2.03;;;;;;;28.38;43.04;97785.38;6251973;28;20308;-69
2022/05/13 12:43:44;;;;;;;3.08;2.33;;;;;;;28.69;39.18;97779.59;6251999;28;20376;-69
2022/05/13 12:46:52;;;;;;;3.42;1.77;;;;;;;28.83;38.12;97775.63;6255119;28;20322;-69
2022/05/13 12:50:18;;;;;;;3.60;1.73;;;;;;;28.83;38.11;97774.81;6257152;28;20608;-70
2022/05/13 12:53:36;;;;;;;2.10;1.90;;;;;;;29.25;37.84;97775.44;6256735;28;20254;-69
2022/05/13 12:56:53;;;;;;;2.10;1.90;;;;;;;29.73;38.59;97767.75;6263082;28;20308;-70
2022/05/13 12:59:56;;;;;;;2.70;1.42;;;;;;;30.26;36.96;97757.53;6256474;28;20228;-68
2022/05/13 13:02:58;;;;;;;2.10;1.48;;;;;;;30.40;37.37;97756.97;6256886;28;20231;-69
2022/05/13 13:06:11;;;;;;;6.72;1.42;;;;;;;30.24;36.04;97759.72;6255899;28;20232;-69
2022/05/13 13:09:28;;;;;;;2.95;1.50;;;;;;;30.13;34.29;97761.44;6256030;28;20302;-68
2022/05/13 13:12:35;;;;;;;4.28;1.50;;;;;;;30.46;35.75;97753.25;6256647;28;20223;-69
2022/05/13 13:16:03;;;;;;;2.53;1.30;;;;;;;30.65;33.28;97759.28;6239195;28;20228;-69
2022/05/13 13:19:09;;;;;;;3.45;1.25;;;;;;;31.20;33.33;97747.56;6238960;28;20695;-68
2022/05/13 13:22:13;;;;;;;2.88;1.70;;;;;;;31.41;32.36;97735.81;6255655;28;20322;-68
2022/05/13 13:25:29;;;;;;;3.78;1.60;;;;;;;31.30;31.03;97733.22;6256370;28;20363;-69
2022/05/13 13:28:37;;;;;;;1.52;1.42;;;;;;;31.61;30.42;97729.78;6244712;28;20243;-69
2022/05/13 13:31:42;;;;;;;2.45;1.23;;;;;;;31.48;30.96;97728.25;6249388;28;20284;-68
2022/05/13 13:34:54;;;;;;;2.13;1.70;;;;;;;31.85;32.53;97731.13;6255528;28;20227;-69
2022/05/13 13:37:58;;;;;;;2.83;1.73;;;;;;;32.37;31.48;97732.44;6257024;28;20234;-69
2022/05/13 13:41:00;;;;;;;2.58;1.52;;;;;;;31.85;30.37;97738.50;6255694;28;20231;-69
2022/05/13 13:44:06;;;;;;;2.75;1.60;;;;;;;31.61;31.31;97743.41;6255563;28;20958;-69
2022/05/13 13:47:32;;;;;;;3.78;2.10;;;;;;;32.17;31.91;97735.81;6255920;28;20310;-69
2022/05/13 13:50:34;;;;;;;2.17;1.80;;;;;;;31.77;31.36;97736.22;6245471;28;20237;-69
2022/05/13 13:53:43;;;;;;;2.58;1.92;;;;;;;32.07;30.72;97730.25;6255791;28;20312;-68
2022/05/13 13:56:57;;;;;;;1.95;1.65;;;;;;;31.65;31.83;97722.72;6255359;28;20238;-68
2022/05/13 14:00:06;;;;;;;2.08;1.70;;;;;;;30.43;33.53;97742.03;6229945;28;20239;-68
2022/05/13 14:03:21;;;;;;;1.95;1.65;;;;;;;29.69;36.40;97735.81;6255940;28;20404;-69
2022/05/13 14:06:23;;;;;;;3.60;1.60;;;;;;;29.39;37.40;97748.84;6237562;28;20245;-68
2022/05/13 14:09:36;;;;;;;4.05;1.70;;;;;;;29.14;37.03;97741.78;6255417;28;20262;-68
2022/05/13 14:12:40;;;;;;;2.45;1.92;;;;;;;28.40;38.16;97737.09;6254937;28;20242;-69
2022/05/13 14:15:45;;;;;;;2.28;1.88;;;;;;;28.11;38.75;97731.47;6237101;28;20349;-69
2022/05/13 14:18:50;;;;;;;2.78;2.00;;;;;;;28.13;39.12;97737.50;6254952;28;20332;-68
2022/05/13 14:22:04;;;;;;;2.35;1.70;;;;;;;28.36;38.42;97725.84;6255331;28;20322;-69
2022/05/13 14:25:12;;;;;;;5.28;2.58;;;;;;;27.87;40.75;97725.16;6254076;28;20242;-68
2022/05/13 14:28:17;;;;;;;4.45;2.40;;;;;;;27.41;40.89;97731.22;6255538;28;20361;-68
2022/05/13 14:31:22;;;;;;;2.45;2.22;;;;;;;27.54;40.39;97733.81;6253684;28;20321;-68
2022/05/13 14:34:24;;;;;;;5.18;1.95;;;;;;;27.80;40.25;97729.03;6254290;28;20238;-68
2022/05/13 14:37:36;;;;;;;2.05;1.88;;;;;;;29.46;36.46;97739.47;6254295;28;20741;-69
2022/05/13 14:40:45;;;;;;;3.72;1.90;;;;;;;32.27;32.75;97727.72;6260399;28;20235;-68
2022/05/13 14:43:51;;;;;;;3.75;2.25;;;;;;;34.06;29.25;97729.16;6254079;28;20251;-68
2022/05/13 14:46:56;;;;;;;2.50;1.77;;;;;;;32.27;31.46;97735.91;6253243;28;20721;-69
2022/05/13 14:50:04;;;;;;;3.85;2.50;;;;;;;30.63;34.67;97753.28;6253277;28;20230;-68
2022/05/13 14:53:17;;;;;;;5.03;2.15;;;;;;;28.53;38.36;97756.72;6255280;28;20232;-67
2022/05/13 14:56:42;;;;;;;7.05;5.38;;;;;;;27.94;40.09;97732.41;6253102;28;20231;-67
2022/05/13 15:00:11;;;;;;;2.47;2.27;;;;;;;27.93;41.95;97737.00;6252746;28;20436;-68
2022/05/13 15:03:19;;;;;;;2.80;2.33;;;;;;;27.24;43.14;97734.81;6254386;28;20528;-67
2022/05/13 15:06:30;;;;;;;5.40;2.40;;;;;;;26.23;43.96;97741.41;6254778;28;20281;-68
2022/05/13 15:09:32;;;;;;;3.45;2.38;;;;;;;26.07;44.97;97726.53;6253447;28;20224;-69
2022/05/13 15:12:34;;;;;;;3.95;2.40;;;;;;;24.98;45.76;97721.31;6253256;28;20225;-68
2022/05/13 15:15:37;;;;;;;3.92;2.28;;;;;;;24.07;47.02;97724.94;6253661;28;20235;-67
2022/05/13 15:18:41;;;;;;;5.88;2.40;;;;;;;23.77;47.67;97719.13;6253233;28;20223;-67
2022/05/13 15:21:43;;;;;;;2.50;2.28;;;;;;;27.44;39.98;97690.13;6255084;28;20219;-67
2022/05/13 15:24:47;;;;;;;2.67;2.42;;;;;;;31.29;34.23;97707.84;6252851;28;20226;-68
2022/05/13 15:27:49;;;;;;;3.42;1.95;;;;;;;33.94;27.51;97701.19;6253202;28;20250;-68
2022/05/13 15:30:55;;;;;;;4.45;2.42;;;;;;;35.26;26.78;97697.50;6253295;28;20245;-69
2022/05/13 15:33:58;;;;;;;4.10;2.15;;;;;;;36.75;24.71;97706.06;6244756;28;20546;-69
2022/05/13 15:37:00;;;;;;;2.45;1.98;;;;;;;37.63;23.35;97693.75;6254365;28;20239;-69
2022/05/13 15:40:05;;;;;;;4.03;1.80;;;;;;;38.29;22.33;97693.56;6253759;28;20234;-70
2022/05/13 15:43:07;;;;;;;2.30;1.77;;;;;;;38.07;22.68;97695.31;6252572;28;20710;-69
2022/05/13 15:46:14;;;;;;;2.80;1.58;;;;;;;38.17;21.80;97714.44;6253864;28;20710;-69
2022/05/13 15:52:43;;;;;;;1.75;1.65;;;;;;;38.19;21.89;97703.94;6252953;28;20261;-69
2022/05/13 15:55:48;;;;;;;2.63;1.80;;;;;;;38.81;21.98;97701.78;6252352;28;20322;-68
2022/05/13 15:58:50;;;;;;;1.83;1.73;;;;;;;38.65;22.18;97693.75;6252762;28;20238;-69
2022/05/13 16:02:12;;;;;;;4.03;1.58;;;;;;;35.87;24.52;97690.56;6252124;28;20227;-69
2022/05/13 16:05:17;;;;;;;2.42;2.15;;;;;;;34.94;25.06;97695.13;6234133;28;20218;-69
2022/05/13 16:08:19;;;;;;;4.38;1.88;;;;;;;35.08;26.12;97687.94;6235328;28;20306;-68
2022/05/13 16:11:26;;;;;;;2.05;1.50;;;;;;;33.04;28.24;97688.06;6252271;28;20227;-68